sensor_id;sensor_type;location;lat;lon;timestamp;temperature;humidity
15666;DHT22;20725;51.196;3.510;2023-03-03T00:07:51;2.10;90.50
15666;DHT22;20725;51.196;3.510;2023-03-03T00:10:54;2.10;90.80
15666;DHT22;20725;51.196;3.510;2023-03-03T00:13:32;2.10;90.60
15666;DHT22;20725;51.196;3.510;2023-03-03T01:08:30;1.70;91.50
15666;DHT22;20725;51.196;3.510;2023-03-03T01:11:00;1.70;91.60
15666;DHT22;20725;51.196;3.510;2023-03-03T01:13:31;1.70;91.90
15666;DHT22;20725;51.196;3.510;2023-03-03T01:15:59;1.70;91.80
15666;DHT22;20725;51.196;3.510;2023-03-03T01:18:26;1.70;91.80
15666;DHT22;20725;51.196;3.510;2023-03-03T01:20:54;1.70;91.80
15666;DHT22;20725;51.196;3.510;2023-03-03T01:23:21;1.60;92.00
15666;DHT22;20725;51.196;3.510;2023-03-03T01:25:49;1.70;91.90
15666;DHT22;20725;51.196;3.510;2023-03-03T01:28:16;1.70;91.80
15666;DHT22;20725;51.196;3.510;2023-03-03T01:30:43;1.60;91.90
15666;DHT22;20725;51.196;3.510;2023-03-03T01:33:10;1.70;91.80
15666;DHT22;20725;51.196;3.510;2023-03-03T01:35:37;1.70;92.00
15666;DHT22;20725;51.196;3.510;2023-03-03T01:38:05;1.60;91.90
15666;DHT22;20725;51.196;3.510;2023-03-03T01:40:32;1.60;92.00
15666;DHT22;20725;51.196;3.510;2023-03-03T01:43:01;1.60;91.90
15666;DHT22;20725;51.196;3.510;2023-03-03T01:45:29;1.60;92.00
15666;DHT22;20725;51.196;3.510;2023-03-03T01:47:59;1.50;91.90
15666;DHT22;20725;51.196;3.510;2023-03-03T01:50:37;1.50;92.00
15666;DHT22;20725;51.196;3.510;2023-03-03T01:53:12;1.50;92.00
15666;DHT22;20725;51.196;3.510;2023-03-03T01:55:41;1.40;91.90
15666;DHT22;20725;51.196;3.510;2023-03-03T01:58:14;1.40;92.00
15666;DHT22;20725;51.196;3.510;2023-03-03T02:00:47;1.40;91.90
15666;DHT22;20725;51.196;3.510;2023-03-03T02:03:16;1.40;92.00
15666;DHT22;20725;51.196;3.510;2023-03-03T02:05:44;1.30;92.00
15666;DHT22;20725;51.196;3.510;2023-03-03T02:08:13;1.30;92.10
15666;DHT22;20725;51.196;3.510;2023-03-03T02:10:42;1.30;92.00
15666;DHT22;20725;51.196;3.510;2023-03-03T02:13:11;1.30;92.10
15666;DHT22;20725;51.196;3.510;2023-03-03T02:15:38;1.40;92.20
15666;DHT22;20725;51.196;3.510;2023-03-03T02:18:09;1.40;92.20
15666;DHT22;20725;51.196;3.510;2023-03-03T02:20:45;1.30;92.20
15666;DHT22;20725;51.196;3.510;2023-03-03T02:23:17;1.40;92.30
15666;DHT22;20725;51.196;3.510;2023-03-03T02:25:52;1.30;92.20
15666;DHT22;20725;51.196;3.510;2023-03-03T02:28:23;1.30;92.30
15666;DHT22;20725;51.196;3.510;2023-03-03T02:30:53;1.30;92.30
15666;DHT22;20725;51.196;3.510;2023-03-03T02:33:20;1.20;92.40
15666;DHT22;20725;51.196;3.510;2023-03-03T02:35:47;1.20;92.30
15666;DHT22;20725;51.196;3.510;2023-03-03T02:38:19;1.20;92.20
15666;DHT22;20725;51.196;3.510;2023-03-03T02:40:56;1.10;92.30
15666;DHT22;20725;51.196;3.510;2023-03-03T02:43:32;1.10;92.40
15666;DHT22;20725;51.196;3.510;2023-03-03T02:46:02;1.10;92.10
15666;DHT22;20725;51.196;3.510;2023-03-03T02:48:29;1.00;92.20
15666;DHT22;20725;51.196;3.510;2023-03-03T02:50:55;1.00;92.40
15666;DHT22;20725;51.196;3.510;2023-03-03T02:53:22;1.00;92.30
15666;DHT22;20725;51.196;3.510;2023-03-03T02:55:49;1.00;92.30
15666;DHT22;20725;51.196;3.510;2023-03-03T02:58:17;1.00;92.40
15666;DHT22;20725;51.196;3.510;2023-03-03T03:00:45;1.00;92.50
15666;DHT22;20725;51.196;3.510;2023-03-03T03:03:12;1.00;92.40
15666;DHT22;20725;51.196;3.510;2023-03-03T03:05:39;1.00;92.40
15666;DHT22;20725;51.196;3.510;2023-03-03T03:08:06;1.00;92.50
15666;DHT22;20725;51.196;3.510;2023-03-03T03:10:33;1.00;92.40
15666;DHT22;20725;51.196;3.510;2023-03-03T03:13:00;1.00;92.50
15666;DHT22;20725;51.196;3.510;2023-03-03T03:15:27;1.00;92.90
15666;DHT22;20725;51.196;3.510;2023-03-03T03:17:56;1.00;92.80
15666;DHT22;20725;51.196;3.510;2023-03-03T03:20:22;1.00;92.80
15666;DHT22;20725;51.196;3.510;2023-03-03T03:22:49;1.00;92.70
15666;DHT22;20725;51.196;3.510;2023-03-03T03:25:16;1.00;92.70
15666;DHT22;20725;51.196;3.510;2023-03-03T03:27:43;1.00;92.90
15666;DHT22;20725;51.196;3.510;2023-03-03T03:30:11;1.00;92.90
15666;DHT22;20725;51.196;3.510;2023-03-03T03:32:38;1.00;92.70
15666;DHT22;20725;51.196;3.510;2023-03-03T03:35:07;0.90;92.80
15666;DHT22;20725;51.196;3.510;2023-03-03T03:37:34;0.90;92.80
15666;DHT22;20725;51.196;3.510;2023-03-03T03:40:01;0.80;92.60
15666;DHT22;20725;51.196;3.510;2023-03-03T03:42:27;0.80;93.00
15666;DHT22;20725;51.196;3.510;2023-03-03T03:44:54;0.80;92.70
15666;DHT22;20725;51.196;3.510;2023-03-03T03:47:21;0.80;92.70
15666;DHT22;20725;51.196;3.510;2023-03-03T03:49:48;0.80;92.90
15666;DHT22;20725;51.196;3.510;2023-03-03T03:52:17;0.70;92.70
15666;DHT22;20725;51.196;3.510;2023-03-03T03:54:43;0.70;92.80
15666;DHT22;20725;51.196;3.510;2023-03-03T03:57:10;0.70;92.80
15666;DHT22;20725;51.196;3.510;2023-03-03T03:59:37;0.70;93.40
15666;DHT22;20725;51.196;3.510;2023-03-03T04:02:04;0.70;93.10
15666;DHT22;20725;51.196;3.510;2023-03-03T04:04:31;0.60;93.20
15666;DHT22;20725;51.196;3.510;2023-03-03T04:06:58;0.60;93.30
15666;DHT22;20725;51.196;3.510;2023-03-03T04:09:26;0.60;93.20
15666;DHT22;20725;51.196;3.510;2023-03-03T04:11:53;0.50;93.00
15666;DHT22;20725;51.196;3.510;2023-03-03T04:14:20;0.60;93.00
15666;DHT22;20725;51.196;3.510;2023-03-03T04:16:47;0.50;92.90
15666;DHT22;20725;51.196;3.510;2023-03-03T04:19:14;0.50;93.30
15666;DHT22;20725;51.196;3.510;2023-03-03T04:21:41;0.50;93.20
15666;DHT22;20725;51.196;3.510;2023-03-03T04:24:08;0.50;93.10
15666;DHT22;20725;51.196;3.510;2023-03-03T04:26:36;0.50;93.10
15666;DHT22;20725;51.196;3.510;2023-03-03T04:29:04;0.50;93.20
15666;DHT22;20725;51.196;3.510;2023-03-03T04:31:31;0.50;93.30
15666;DHT22;20725;51.196;3.510;2023-03-03T04:33:58;0.40;93.20
15666;DHT22;20725;51.196;3.510;2023-03-03T04:36:25;0.50;93.40
15666;DHT22;20725;51.196;3.510;2023-03-03T04:38:52;0.50;93.40
15666;DHT22;20725;51.196;3.510;2023-03-03T04:41:19;0.50;93.50
15666;DHT22;20725;51.196;3.510;2023-03-03T04:43:47;0.50;93.50
15666;DHT22;20725;51.196;3.510;2023-03-03T04:46:14;0.50;93.80
15666;DHT22;20725;51.196;3.510;2023-03-03T04:48:41;0.50;93.60
15666;DHT22;20725;51.196;3.510;2023-03-03T04:51:08;0.50;93.70
15666;DHT22;20725;51.196;3.510;2023-03-03T04:53:34;0.50;93.60
15666;DHT22;20725;51.196;3.510;2023-03-03T04:56:03;0.40;93.80
15666;DHT22;20725;51.196;3.510;2023-03-03T04:58:30;0.40;93.60
15666;DHT22;20725;51.196;3.510;2023-03-03T05:00:58;0.30;93.50
15666;DHT22;20725;51.196;3.510;2023-03-03T05:03:26;0.40;93.60
15666;DHT22;20725;51.196;3.510;2023-03-03T05:05:53;0.30;93.60
15666;DHT22;20725;51.196;3.510;2023-03-03T05:08:20;0.30;93.60
15666;DHT22;20725;51.196;3.510;2023-03-03T05:10:50;0.30;93.70
15666;DHT22;20725;51.196;3.510;2023-03-03T05:13:17;0.30;93.90
15666;DHT22;20725;51.196;3.510;2023-03-03T05:15:48;0.30;93.80
15666;DHT22;20725;51.196;3.510;2023-03-03T05:18:18;0.30;93.80
15666;DHT22;20725;51.196;3.510;2023-03-03T05:20:45;0.30;93.90
15666;DHT22;20725;51.196;3.510;2023-03-03T05:23:11;0.30;94.60
15666;DHT22;20725;51.196;3.510;2023-03-03T05:25:39;0.40;95.20
15666;DHT22;20725;51.196;3.510;2023-03-03T05:28:06;0.30;94.90
15666;DHT22;20725;51.196;3.510;2023-03-03T05:30:33;0.40;95.40
15666;DHT22;20725;51.196;3.510;2023-03-03T05:33:00;0.40;94.70
15666;DHT22;20725;51.196;3.510;2023-03-03T05:35:29;0.40;94.60
15666;DHT22;20725;51.196;3.510;2023-03-03T05:37:56;0.40;94.90
15666;DHT22;20725;51.196;3.510;2023-03-03T05:40:24;0.50;94.70
15666;DHT22;20725;51.196;3.510;2023-03-03T05:42:51;0.40;94.60
15666;DHT22;20725;51.196;3.510;2023-03-03T05:45:18;0.50;94.70
15666;DHT22;20725;51.196;3.510;2023-03-03T05:47:46;0.50;94.70
15666;DHT22;20725;51.196;3.510;2023-03-03T05:50:14;0.50;94.60
15666;DHT22;20725;51.196;3.510;2023-03-03T05:52:43;0.50;94.50
15666;DHT22;20725;51.196;3.510;2023-03-03T05:55:10;0.60;94.60
15666;DHT22;20725;51.196;3.510;2023-03-03T05:57:37;0.60;94.90
15666;DHT22;20725;51.196;3.510;2023-03-03T06:00:05;0.60;94.70
15666;DHT22;20725;51.196;3.510;2023-03-03T06:02:32;0.60;94.70
15666;DHT22;20725;51.196;3.510;2023-03-03T06:04:59;0.60;95.10
15666;DHT22;20725;51.196;3.510;2023-03-03T06:07:26;0.60;95.00
15666;DHT22;20725;51.196;3.510;2023-03-03T06:09:55;0.60;94.90
15666;DHT22;20725;51.196;3.510;2023-03-03T06:12:22;0.70;95.00
15666;DHT22;20725;51.196;3.510;2023-03-03T06:14:48;0.70;95.10
15666;DHT22;20725;51.196;3.510;2023-03-03T06:17:15;0.70;95.00
15666;DHT22;20725;51.196;3.510;2023-03-03T06:19:42;0.80;94.90
15666;DHT22;20725;51.196;3.510;2023-03-03T06:22:09;0.80;94.80
15666;DHT22;20725;51.196;3.510;2023-03-03T06:24:36;0.80;94.90
15666;DHT22;20725;51.196;3.510;2023-03-03T06:27:05;0.90;95.10
15666;DHT22;20725;51.196;3.510;2023-03-03T06:29:32;0.90;95.00
15666;DHT22;20725;51.196;3.510;2023-03-03T06:31:59;1.00;95.20
15666;DHT22;20725;51.196;3.510;2023-03-03T06:34:26;1.00;95.20
15666;DHT22;20725;51.196;3.510;2023-03-03T06:36:53;1.10;95.20
15666;DHT22;20725;51.196;3.510;2023-03-03T06:39:21;1.10;95.00
15666;DHT22;20725;51.196;3.510;2023-03-03T06:41:48;1.20;95.10
15666;DHT22;20725;51.196;3.510;2023-03-03T06:44:16;1.20;95.10
15666;DHT22;20725;51.196;3.510;2023-03-03T06:46:43;1.20;95.30
15666;DHT22;20725;51.196;3.510;2023-03-03T06:49:10;1.30;95.30
15666;DHT22;20725;51.196;3.510;2023-03-03T06:51:38;1.40;95.30
15666;DHT22;20725;51.196;3.510;2023-03-03T06:54:11;1.50;95.50
15666;DHT22;20725;51.196;3.510;2023-03-03T06:56:39;1.60;95.40
15666;DHT22;20725;51.196;3.510;2023-03-03T06:59:11;1.60;95.30
15666;DHT22;20725;51.196;3.510;2023-03-03T07:01:41;1.80;95.40
15666;DHT22;20725;51.196;3.510;2023-03-03T07:04:16;1.90;95.20
15666;DHT22;20725;51.196;3.510;2023-03-03T07:06:46;1.90;94.80
15666;DHT22;20725;51.196;3.510;2023-03-03T07:09:19;2.00;94.90
15666;DHT22;20725;51.196;3.510;2023-03-03T07:11:46;2.20;94.90
15666;DHT22;20725;51.196;3.510;2023-03-03T07:14:15;2.30;94.80
15666;DHT22;20725;51.196;3.510;2023-03-03T07:16:45;2.40;94.90
15666;DHT22;20725;51.196;3.510;2023-03-03T07:19:18;2.60;94.80
15666;DHT22;20725;51.196;3.510;2023-03-03T07:21:46;2.70;94.50
15666;DHT22;20725;51.196;3.510;2023-03-03T07:24:25;2.80;94.20
15666;DHT22;20725;51.196;3.510;2023-03-03T07:26:55;2.90;93.80
15666;DHT22;20725;51.196;3.510;2023-03-03T07:29:26;2.90;94.00
15666;DHT22;20725;51.196;3.510;2023-03-03T07:31:57;3.00;93.60
15666;DHT22;20725;51.196;3.510;2023-03-03T07:34:29;3.10;93.30
15666;DHT22;20725;51.196;3.510;2023-03-03T07:37:05;3.20;93.20
15666;DHT22;20725;51.196;3.510;2023-03-03T07:39:36;3.30;93.20
15666;DHT22;20725;51.196;3.510;2023-03-03T07:42:16;3.40;93.00
15666;DHT22;20725;51.196;3.510;2023-03-03T07:44:46;3.60;92.60
15666;DHT22;20725;51.196;3.510;2023-03-03T07:47:23;3.70;92.70
15666;DHT22;20725;51.196;3.510;2023-03-03T07:49:52;3.80;92.30
15666;DHT22;20725;51.196;3.510;2023-03-03T07:52:25;3.90;92.60
15666;DHT22;20725;51.196;3.510;2023-03-03T07:54:53;4.00;92.10
15666;DHT22;20725;51.196;3.510;2023-03-03T07:57:24;4.00;92.00
15666;DHT22;20725;51.196;3.510;2023-03-03T07:59:52;4.00;91.90
15666;DHT22;20725;51.196;3.510;2023-03-03T08:02:38;4.00;91.80
15666;DHT22;20725;51.196;3.510;2023-03-03T08:05:27;4.20;91.60
15666;DHT22;20725;51.196;3.510;2023-03-03T08:08:01;4.30;91.30
15666;DHT22;20725;51.196;3.510;2023-03-03T08:10:46;4.40;91.50
15666;DHT22;20725;51.196;3.510;2023-03-03T08:13:18;4.50;91.20
15666;DHT22;20725;51.196;3.510;2023-03-03T08:15:48;4.60;91.20
15666;DHT22;20725;51.196;3.510;2023-03-03T08:18:22;4.70;91.20
15666;DHT22;20725;51.196;3.510;2023-03-03T08:20:54;4.70;91.20
15666;DHT22;20725;51.196;3.510;2023-03-03T08:23:22;4.80;90.60
15666;DHT22;20725;51.196;3.510;2023-03-03T08:25:50;4.90;90.90
15666;DHT22;20725;51.196;3.510;2023-03-03T08:28:18;5.00;90.80
15666;DHT22;20725;51.196;3.510;2023-03-03T08:30:46;5.10;90.60
15666;DHT22;20725;51.196;3.510;2023-03-03T08:33:13;5.20;90.50
15666;DHT22;20725;51.196;3.510;2023-03-03T08:35:42;5.30;90.30
15666;DHT22;20725;51.196;3.510;2023-03-03T08:38:12;5.50;90.30
15666;DHT22;20725;51.196;3.510;2023-03-03T08:40:39;5.70;90.10
15666;DHT22;20725;51.196;3.510;2023-03-03T08:43:07;5.70;89.30
15666;DHT22;20725;51.196;3.510;2023-03-03T08:45:35;5.70;89.30
15666;DHT22;20725;51.196;3.510;2023-03-03T08:48:02;5.70;89.10
15666;DHT22;20725;51.196;3.510;2023-03-03T08:50:29;5.70;89.30
15666;DHT22;20725;51.196;3.510;2023-03-03T08:52:57;5.80;89.20
15666;DHT22;20725;51.196;3.510;2023-03-03T08:55:24;5.90;89.40
15666;DHT22;20725;51.196;3.510;2023-03-03T08:57:51;6.00;89.10
15666;DHT22;20725;51.196;3.510;2023-03-03T09:00:19;6.00;88.50
15666;DHT22;20725;51.196;3.510;2023-03-03T09:02:46;6.00;88.50
15666;DHT22;20725;51.196;3.510;2023-03-03T09:05:14;6.10;88.60
15666;DHT22;20725;51.196;3.510;2023-03-03T09:07:42;6.30;88.00
15666;DHT22;20725;51.196;3.510;2023-03-03T09:10:13;6.30;87.60
15666;DHT22;20725;51.196;3.510;2023-03-03T09:12:42;6.40;86.80
15666;DHT22;20725;51.196;3.510;2023-03-03T09:15:18;6.50;87.20
15666;DHT22;20725;51.196;3.510;2023-03-03T09:17:46;6.50;86.90
15666;DHT22;20725;51.196;3.510;2023-03-03T09:20:32;6.70;86.90
15666;DHT22;20725;51.196;3.510;2023-03-03T09:23:26;6.80;86.00
15666;DHT22;20725;51.196;3.510;2023-03-03T09:25:56;6.90;85.40
15666;DHT22;20725;51.196;3.510;2023-03-03T09:28:24;6.90;85.20
15666;DHT22;20725;51.196;3.510;2023-03-03T09:30:53;6.90;85.30
15666;DHT22;20725;51.196;3.510;2023-03-03T09:33:26;7.10;85.50
15666;DHT22;20725;51.196;3.510;2023-03-03T09:36:00;7.10;85.30
15666;DHT22;20725;51.196;3.510;2023-03-03T09:38:30;7.20;84.00
15666;DHT22;20725;51.196;3.510;2023-03-03T09:44:21;7.40;83.10
15666;DHT22;20725;51.196;3.510;2023-03-03T09:47:09;7.40;83.70
15666;DHT22;20725;51.196;3.510;2023-03-03T09:49:47;7.60;83.10
15666;DHT22;20725;51.196;3.510;2023-03-03T09:52:26;7.50;82.00
15666;DHT22;20725;51.196;3.510;2023-03-03T09:55:12;7.40;81.80
15666;DHT22;20725;51.196;3.510;2023-03-03T09:57:56;7.50;81.90
15666;DHT22;20725;51.196;3.510;2023-03-03T10:00:38;7.50;81.50
15666;DHT22;20725;51.196;3.510;2023-03-03T10:06:17;7.70;81.70
15666;DHT22;20725;51.196;3.510;2023-03-03T10:09:01;7.70;81.20
15666;DHT22;20725;51.196;3.510;2023-03-03T10:11:35;7.90;81.30
15666;DHT22;20725;51.196;3.510;2023-03-03T10:14:17;7.90;79.80
15666;DHT22;20725;51.196;3.510;2023-03-03T10:17:00;7.70;80.40
15666;DHT22;20725;51.196;3.510;2023-03-03T10:19:38;7.70;81.10
15666;DHT22;20725;51.196;3.510;2023-03-03T10:22:23;7.90;80.20
15666;DHT22;20725;51.196;3.510;2023-03-03T10:25:02;8.00;80.80
15666;DHT22;20725;51.196;3.510;2023-03-03T10:27:42;8.10;79.80
15666;DHT22;20725;51.196;3.510;2023-03-03T10:30:18;8.10;79.40
15666;DHT22;20725;51.196;3.510;2023-03-03T10:32:51;8.10;78.00
15666;DHT22;20725;51.196;3.510;2023-03-03T10:38:23;8.10;78.80
15666;DHT22;20725;51.196;3.510;2023-03-03T10:40:55;8.60;78.10
15666;DHT22;20725;51.196;3.510;2023-03-03T10:43:35;8.90;76.00
15666;DHT22;20725;51.196;3.510;2023-03-03T10:46:32;9.10;75.50
15666;DHT22;20725;51.196;3.510;2023-03-03T10:49:31;9.10;74.80
15666;DHT22;20725;51.196;3.510;2023-03-03T10:52:21;9.00;74.20
15666;DHT22;20725;51.196;3.510;2023-03-03T10:57:48;9.30;74.80
15666;DHT22;20725;51.196;3.510;2023-03-03T11:00:22;9.40;73.60
15666;DHT22;20725;51.196;3.510;2023-03-03T11:05:49;9.50;73.20
15666;DHT22;20725;51.196;3.510;2023-03-03T11:08:21;9.60;71.90
15666;DHT22;20725;51.196;3.510;2023-03-03T11:10:53;9.70;71.70
15666;DHT22;20725;51.196;3.510;2023-03-03T11:13:31;9.80;70.30
15666;DHT22;20725;51.196;3.510;2023-03-03T11:16:16;10.20;71.10
15666;DHT22;20725;51.196;3.510;2023-03-03T11:18:54;10.60;70.20
15666;DHT22;20725;51.196;3.510;2023-03-03T11:21:31;11.10;68.60
15666;DHT22;20725;51.196;3.510;2023-03-03T11:24:15;11.30;66.20
15666;DHT22;20725;51.196;3.510;2023-03-03T11:27:07;12.30;64.10
15666;DHT22;20725;51.196;3.510;2023-03-03T11:29:48;12.30;62.50
15666;DHT22;20725;51.196;3.510;2023-03-03T11:32:24;12.40;60.70
15666;DHT22;20725;51.196;3.510;2023-03-03T11:35:12;12.40;59.70
15666;DHT22;20725;51.196;3.510;2023-03-03T11:37:47;14.70;64.80
15666;DHT22;20725;51.196;3.510;2023-03-03T11:40:21;18.60;50.80
15666;DHT22;20725;51.196;3.510;2023-03-03T11:42:57;20.40;48.00
15666;DHT22;20725;51.196;3.510;2023-03-03T11:45:33;22.80;40.50
15666;DHT22;20725;51.196;3.510;2023-03-03T11:48:07;23.50;38.20
15666;DHT22;20725;51.196;3.510;2023-03-03T11:50:41;25.90;32.20
15666;DHT22;20725;51.196;3.510;2023-03-03T11:53:23;26.60;28.10
15666;DHT22;20725;51.196;3.510;2023-03-03T11:55:55;27.60;27.60
15666;DHT22;20725;51.196;3.510;2023-03-03T11:58:25;29.30;26.00
15666;DHT22;20725;51.196;3.510;2023-03-03T12:00:56;29.40;23.60
15666;DHT22;20725;51.196;3.510;2023-03-03T12:03:29;29.80;22.60
15666;DHT22;20725;51.196;3.510;2023-03-03T12:06:07;31.20;24.40
15666;DHT22;20725;51.196;3.510;2023-03-03T12:09:02;33.40;21.90
15666;DHT22;20725;51.196;3.510;2023-03-03T12:11:42;33.50;19.00
15666;DHT22;20725;51.196;3.510;2023-03-03T12:14:21;34.80;19.30
15666;DHT22;20725;51.196;3.510;2023-03-03T12:16:55;36.10;18.00
15666;DHT22;20725;51.196;3.510;2023-03-03T12:19:36;36.10;17.90
15666;DHT22;20725;51.196;3.510;2023-03-03T12:22:25;36.40;17.90
15666;DHT22;20725;51.196;3.510;2023-03-03T12:25:27;37.40;15.50
15666;DHT22;20725;51.196;3.510;2023-03-03T12:28:01;35.70;15.50
15666;DHT22;20725;51.196;3.510;2023-03-03T12:31:00;36.00;16.60
15666;DHT22;20725;51.196;3.510;2023-03-03T12:33:39;36.80;17.30
15666;DHT22;20725;51.196;3.510;2023-03-03T12:36:20;38.40;15.80
15666;DHT22;20725;51.196;3.510;2023-03-03T12:38:52;38.80;14.30
15666;DHT22;20725;51.196;3.510;2023-03-03T12:41:26;37.80;14.70
15666;DHT22;20725;51.196;3.510;2023-03-03T12:44:01;38.50;14.80
15666;DHT22;20725;51.196;3.510;2023-03-03T12:46:39;39.30;14.20
15666;DHT22;20725;51.196;3.510;2023-03-03T12:49:07;39.20;13.70
15666;DHT22;20725;51.196;3.510;2023-03-03T12:51:45;38.60;13.40
15666;DHT22;20725;51.196;3.510;2023-03-03T12:54:34;38.80;12.90
15666;DHT22;20725;51.196;3.510;2023-03-03T12:57:15;39.70;13.20
15666;DHT22;20725;51.196;3.510;2023-03-03T12:59:54;40.70;13.90
15666;DHT22;20725;51.196;3.510;2023-03-03T13:02:38;40.20;12.30
15666;DHT22;20725;51.196;3.510;2023-03-03T13:05:21;39.80;13.20
15666;DHT22;20725;51.196;3.510;2023-03-03T13:07:58;39.80;12.40
15666;DHT22;20725;51.196;3.510;2023-03-03T13:10:34;40.30;13.00
15666;DHT22;20725;51.196;3.510;2023-03-03T13:13:10;40.00;12.30
15666;DHT22;20725;51.196;3.510;2023-03-03T13:15:57;39.80;13.00
15666;DHT22;20725;51.196;3.510;2023-03-03T13:18:33;39.40;12.80
15666;DHT22;20725;51.196;3.510;2023-03-03T13:21:05;38.30;14.00
15666;DHT22;20725;51.196;3.510;2023-03-03T13:23:40;37.90;12.60
15666;DHT22;20725;51.196;3.510;2023-03-03T13:26:12;37.40;14.40
15666;DHT22;20725;51.196;3.510;2023-03-03T13:28:55;39.00;13.50
15666;DHT22;20725;51.196;3.510;2023-03-03T13:31:25;40.10;13.20
15666;DHT22;20725;51.196;3.510;2023-03-03T13:33:58;37.00;12.20
15666;DHT22;20725;51.196;3.510;2023-03-03T13:36:30;33.70;14.80
15666;DHT22;20725;51.196;3.510;2023-03-03T13:39:02;34.00;15.40
15666;DHT22;20725;51.196;3.510;2023-03-03T13:41:36;34.70;14.50
15666;DHT22;20725;51.196;3.510;2023-03-03T13:44:12;33.90;15.50
15666;DHT22;20725;51.196;3.510;2023-03-03T13:46:47;33.90;14.40
15666;DHT22;20725;51.196;3.510;2023-03-03T13:49:29;35.70;15.00
15666;DHT22;20725;51.196;3.510;2023-03-03T13:52:00;37.40;14.40
15666;DHT22;20725;51.196;3.510;2023-03-03T13:54:51;33.00;14.40
15666;DHT22;20725;51.196;3.510;2023-03-03T14:00:25;35.30;15.10
15666;DHT22;20725;51.196;3.510;2023-03-03T14:03:12;36.00;15.00
15666;DHT22;20725;51.196;3.510;2023-03-03T14:05:45;37.10;14.30
15666;DHT22;20725;51.196;3.510;2023-03-03T14:08:22;38.70;13.50
15666;DHT22;20725;51.196;3.510;2023-03-03T14:11:03;36.10;12.20
15666;DHT22;20725;51.196;3.510;2023-03-03T14:13:39;32.70;14.90
15666;DHT22;20725;51.196;3.510;2023-03-03T14:16:14;33.70;15.60
15666;DHT22;20725;51.196;3.510;2023-03-03T14:18:48;35.00;14.90
15666;DHT22;20725;51.196;3.510;2023-03-03T14:21:25;36.20;14.00
15666;DHT22;20725;51.196;3.510;2023-03-03T14:23:58;36.00;13.50
15666;DHT22;20725;51.196;3.510;2023-03-03T14:26:26;36.70;13.40
15666;DHT22;20725;51.196;3.510;2023-03-03T14:29:15;36.20;13.00
15666;DHT22;20725;51.196;3.510;2023-03-03T14:31:46;33.60;14.30
15666;DHT22;20725;51.196;3.510;2023-03-03T14:34:29;30.80;15.60
15666;DHT22;20725;51.196;3.510;2023-03-03T14:37:22;28.70;18.40
15666;DHT22;20725;51.196;3.510;2023-03-03T14:40:16;29.80;18.20
15666;DHT22;20725;51.196;3.510;2023-03-03T14:42:52;29.90;17.10
15666;DHT22;20725;51.196;3.510;2023-03-03T14:45:28;27.90;17.90
15666;DHT22;20725;51.196;3.510;2023-03-03T14:47:58;26.20;19.60
15666;DHT22;20725;51.196;3.510;2023-03-03T14:50:31;25.20;20.50
15666;DHT22;20725;51.196;3.510;2023-03-03T14:53:14;22.40;23.20
15666;DHT22;20725;51.196;3.510;2023-03-03T14:55:47;20.90;25.90
15666;DHT22;20725;51.196;3.510;2023-03-03T14:58:39;23.30;25.70
15666;DHT22;20725;51.196;3.510;2023-03-03T15:01:10;27.70;21.70
15666;DHT22;20725;51.196;3.510;2023-03-03T15:03:44;30.70;18.80
15666;DHT22;20725;51.196;3.510;2023-03-03T15:06:36;32.50;17.60
15666;DHT22;20725;51.196;3.510;2023-03-03T15:09:28;33.90;16.10
15666;DHT22;20725;51.196;3.510;2023-03-03T15:11:58;31.10;16.50
15666;DHT22;20725;51.196;3.510;2023-03-03T15:14:30;26.30;19.10
15666;DHT22;20725;51.196;3.510;2023-03-03T15:20:14;21.10;25.30
15666;DHT22;20725;51.196;3.510;2023-03-03T15:22:49;19.70;26.90
15666;DHT22;20725;51.196;3.510;2023-03-03T15:25:25;18.60;28.60
15666;DHT22;20725;51.196;3.510;2023-03-03T15:28:05;17.80;30.00
15666;DHT22;20725;51.196;3.510;2023-03-03T15:30:40;17.20;31.50
15666;DHT22;20725;51.196;3.510;2023-03-03T15:33:15;16.60;32.20
15666;DHT22;20725;51.196;3.510;2023-03-03T15:35:50;16.10;33.00
15666;DHT22;20725;51.196;3.510;2023-03-03T15:38:27;15.50;33.90
15666;DHT22;20725;51.196;3.510;2023-03-03T15:41:07;15.10;35.10
15666;DHT22;20725;51.196;3.510;2023-03-03T15:43:38;14.70;36.20
15666;DHT22;20725;51.196;3.510;2023-03-03T15:46:14;14.40;36.50
15666;DHT22;20725;51.196;3.510;2023-03-03T15:48:52;14.20;37.30
15666;DHT22;20725;51.196;3.510;2023-03-03T15:51:37;13.90;38.40
15666;DHT22;20725;51.196;3.510;2023-03-03T15:54:29;13.70;39.40
15666;DHT22;20725;51.196;3.510;2023-03-03T15:57:00;13.30;40.00
15666;DHT22;20725;51.196;3.510;2023-03-03T15:59:55;13.00;40.20
15666;DHT22;20725;51.196;3.510;2023-03-03T16:02:30;12.80;41.30
15666;DHT22;20725;51.196;3.510;2023-03-03T16:05:06;12.60;41.60
15666;DHT22;20725;51.196;3.510;2023-03-03T16:07:48;12.40;42.00
15666;DHT22;20725;51.196;3.510;2023-03-03T16:10:26;12.40;42.30
15666;DHT22;20725;51.196;3.510;2023-03-03T16:13:01;12.40;42.70
15666;DHT22;20725;51.196;3.510;2023-03-03T16:15:43;12.30;42.50
15666;DHT22;20725;51.196;3.510;2023-03-03T16:18:18;12.10;43.20
15666;DHT22;20725;51.196;3.510;2023-03-03T16:20:55;11.90;43.80
15666;DHT22;20725;51.196;3.510;2023-03-03T16:23:38;11.70;44.30
15666;DHT22;20725;51.196;3.510;2023-03-03T16:26:14;11.50;45.10
15666;DHT22;20725;51.196;3.510;2023-03-03T16:29:04;11.40;45.20
15666;DHT22;20725;51.196;3.510;2023-03-03T16:31:35;11.20;45.90
15666;DHT22;20725;51.196;3.510;2023-03-03T16:34:10;11.00;46.30
15666;DHT22;20725;51.196;3.510;2023-03-03T16:36:51;10.90;46.70
15666;DHT22;20725;51.196;3.510;2023-03-03T16:39:25;10.80;47.20
15666;DHT22;20725;51.196;3.510;2023-03-03T16:42:01;10.60;47.60
15666;DHT22;20725;51.196;3.510;2023-03-03T16:44:40;10.30;48.90
15666;DHT22;20725;51.196;3.510;2023-03-03T16:47:21;10.00;50.10
15666;DHT22;20725;51.196;3.510;2023-03-03T16:49:55;9.90;49.60
15666;DHT22;20725;51.196;3.510;2023-03-03T16:52:35;9.90;49.50
15666;DHT22;20725;51.196;3.510;2023-03-03T16:55:11;9.90;50.10
15666;DHT22;20725;51.196;3.510;2023-03-03T16:57:49;9.80;50.60
15666;DHT22;20725;51.196;3.510;2023-03-03T17:00:23;9.70;50.90
15666;DHT22;20725;51.196;3.510;2023-03-03T17:03:02;9.60;50.90
15666;DHT22;20725;51.196;3.510;2023-03-03T17:05:39;9.40;51.40
15666;DHT22;20725;51.196;3.510;2023-03-03T17:08:22;9.30;52.50
15666;DHT22;20725;51.196;3.510;2023-03-03T17:11:02;9.20;53.30
15666;DHT22;20725;51.196;3.510;2023-03-03T17:13:44;9.10;53.30
15666;DHT22;20725;51.196;3.510;2023-03-03T17:16:21;8.90;54.20
15666;DHT22;20725;51.196;3.510;2023-03-03T17:19:02;8.90;53.10
15666;DHT22;20725;51.196;3.510;2023-03-03T17:21:39;8.80;55.50
15666;DHT22;20725;51.196;3.510;2023-03-03T17:24:13;8.60;54.00
15666;DHT22;20725;51.196;3.510;2023-03-03T17:26:55;8.50;55.00
15666;DHT22;20725;51.196;3.510;2023-03-03T17:29:37;8.40;55.90
15666;DHT22;20725;51.196;3.510;2023-03-03T17:32:20;8.30;54.60
15666;DHT22;20725;51.196;3.510;2023-03-03T17:35:10;8.40;54.70
15666;DHT22;20725;51.196;3.510;2023-03-03T17:37:45;8.30;55.40
15666;DHT22;20725;51.196;3.510;2023-03-03T17:40:25;8.20;54.70